Time;durP1;ratioP1;P1;durP2;ratioP2;P2;SDS_P1;SDS_P2;PMS_P1;PMS_P2;Temp;Humidity;BMP_temperature;BMP_pressure;BME280_temperature;BME280_humidity;BME280_pressure;Samples;Min_cycle;Max_cycle;Signal;HPM_P1;HPM_P2
2024/03/28 00:06:13;;;;;;;12.40;5.70;;;;;;;10.45;65.77;96249.25;435107;1255;100536;-40
2024/03/28 00:16:19;;;;;;;34.70;11.20;;;;;;;10.85;66.14;96233.63;435223;1255;107565;-40
2024/03/28 00:26:25;;;;;;;18.50;7.60;;;;;;;11.02;66.25;96218.48;435308;1255;100572;-41
2024/03/28 00:36:33;;;;;;;17.80;8.00;;;;;;;10.98;66.26;96202.05;435137;1256;113850;-41
2024/03/28 00:46:40;;;;;;;24.60;9.30;;;;;;;10.85;66.37;96196.66;435199;1255;107459;-40
2024/03/28 00:56:46;;;;;;;16.20;7.80;;;;;;;10.83;66.59;96179.52;435269;1256;99886;-40
2024/03/28 01:06:53;;;;;;;21.50;8.10;;;;;;;10.95;66.75;96157.86;435196;1255;108444;-40
2024/03/28 01:16:59;;;;;;;19.60;10.40;;;;;;;10.96;67.04;96140.17;435117;1254;99924;-41
2024/03/28 01:27:06;;;;;;;22.00;8.80;;;;;;;10.90;67.27;96137.01;435112;1255;113606;-44
2024/03/28 01:37:13;;;;;;;17.80;9.00;;;;;;;10.82;67.44;96138.30;435269;1254;107672;-40
2024/03/28 01:47:21;;;;;;;15.70;6.00;;;;;;;10.75;67.43;96142.45;435077;1253;100475;-41
2024/03/28 02:07:55;;;;;;;14.80;6.80;;;;;;;10.75;68.00;96117.27;435219;1255;100587;-40
2024/03/28 02:18:02;;;;;;;15.10;7.40;;;;;;;10.69;68.18;96130.29;435304;1255;113434;-40
2024/03/28 02:28:07;;;;;;;20.70;7.60;;;;;;;10.57;68.43;96135.61;435121;1255;107805;-40
2024/03/28 02:38:14;;;;;;;17.10;6.60;;;;;;;10.46;68.55;96132.16;435152;1255;100587;-41
2024/03/28 02:48:21;;;;;;;15.40;6.70;;;;;;;10.51;68.78;96108.39;436178;1249;108615;-41
2024/03/28 02:58:28;;;;;;;22.60;8.20;;;;;;;10.60;69.07;96082.83;435397;1256;100594;-41
2024/03/28 03:08:35;;;;;;;18.20;6.60;;;;;;;10.65;69.27;96072.91;435248;1251;113225;-41
2024/03/28 03:18:41;;;;;;;17.60;5.80;;;;;;;10.73;69.53;96068.27;435386;1253;108098;-40
2024/03/28 03:39:14;;;;;;;19.30;5.50;;;;;;;10.88;69.63;96065.70;435407;1250;107352;-39
2024/03/28 03:49:21;;;;;;;23.70;7.50;;;;;;;10.80;69.85;96051.37;435343;1254;99410;-41
2024/03/28 03:59:27;;;;;;;20.10;6.60;;;;;;;10.68;70.13;96042.88;435341;1254;112713;-40
2024/03/28 04:09:34;;;;;;;21.80;7.50;;;;;;;10.63;70.37;96046.70;435232;1254;108535;-40
2024/03/28 04:19:40;;;;;;;28.40;8.80;;;;;;;10.74;70.70;96042.02;435250;1256;100590;-39
2024/03/28 04:29:48;;;;;;;20.60;7.00;;;;;;;10.93;70.91;96032.14;435219;1253;108954;-41
2024/03/28 04:40:09;;;;;;;32.30;8.70;;;;;;;11.09;71.22;96020.08;435267;1254;99369;-40
2024/03/28 04:50:16;;;;;;;36.20;10.50;;;;;;;11.17;71.38;96017.65;435414;1256;111862;-39
2024/03/28 05:00:23;;;;;;;29.30;8.90;;;;;;;11.22;71.53;96009.02;435461;1256;106977;-41
2024/03/28 05:10:30;;;;;;;35.80;10.00;;;;;;;11.35;71.68;96006.83;435363;1254;100578;-40
2024/03/28 05:20:36;;;;;;;41.10;10.30;;;;;;;11.50;71.76;96014.85;435280;1256;108559;-39
2024/03/28 05:30:42;;;;;;;38.90;11.20;;;;;;;11.55;72.02;96022.30;435417;1254;99340;-40
2024/03/28 05:40:49;;;;;;;31.80;9.50;;;;;;;11.51;72.22;96030.23;434752;1255;837527;-40
2024/03/28 05:50:55;;;;;;;38.00;11.40;;;;;;;11.46;72.31;96042.78;435319;1250;108587;-41
2024/03/28 06:01:02;;;;;;;36.00;10.40;;;;;;;11.53;72.61;96057.86;435360;1256;100599;-40
2024/03/28 06:11:08;;;;;;;42.20;12.10;;;;;;;11.63;73.33;96064.39;435357;1256;108728;-40
2024/03/28 06:21:15;;;;;;;42.70;10.60;;;;;;;11.67;73.85;96074.08;435318;1251;100583;-41
2024/03/28 06:41:27;;;;;;;53.30;13.70;;;;;;;11.61;74.91;96086.51;435245;1253;108048;-40
2024/03/28 06:51:34;;;;;;;55.60;14.40;;;;;;;11.69;75.21;96080.71;435221;1253;99380;-41
2024/03/28 07:11:46;;;;;;;58.60;12.00;;;;;;;12.14;76.36;96064.20;435367;1250;99327;-40
2024/03/28 07:21:53;;;;;;;47.20;14.70;;;;;;;12.33;76.52;96059.98;435307;1256;112404;-40
2024/03/28 07:32:00;;;;;;;59.60;15.70;;;;;;;12.50;76.96;96074.20;435258;1256;107347;-41
2024/03/28 07:42:05;;;;;;;51.00;13.00;;;;;;;12.77;76.99;96078.02;435353;1253;100450;-40
2024/03/28 07:52:11;;;;;;;49.20;12.00;;;;;;;13.04;77.03;96080.77;435354;1254;109459;-39
2024/03/28 08:02:19;;;;;;;51.70;16.00;;;;;;;13.22;76.95;96080.65;435359;1254;99344;-40
2024/03/28 08:12:26;;;;;;;40.60;11.10;;;;;;;13.36;76.87;96062.95;435464;1253;114955;-40
2024/03/28 08:22:32;;;;;;;26.50;6.50;;;;;;;13.59;76.45;96067.76;435273;1250;106869;-40
2024/03/28 08:32:39;;;;;;;24.00;5.40;;;;;;;13.94;75.44;96050.02;435421;1254;100678;-41
2024/03/28 08:42:46;;;;;;;20.80;7.10;;;;;;;14.24;74.10;96068.26;435323;1254;108432;-40
2024/03/28 08:52:54;;;;;;;11.60;3.40;;;;;;;14.45;73.63;96051.39;435312;1254;100607;-40
2024/03/28 09:03:01;;;;;;;9.60;3.10;;;;;;;14.47;72.90;96074.98;435355;1263;113857;-41
2024/03/28 09:13:08;;;;;;;8.40;2.60;;;;;;;14.33;72.50;96062.11;435284;1262;109361;-42
2024/03/28 09:23:15;;;;;;;12.10;2.50;;;;;;;14.22;71.60;96068.47;435305;1254;99723;-41
2024/03/28 09:33:22;;;;;;;6.20;2.20;;;;;;;14.60;70.86;96081.27;435295;1253;108094;-40
2024/03/28 09:43:29;;;;;;;4.80;2.20;;;;;;;15.08;69.35;96074.90;435301;1255;100893;-40
2024/03/28 09:53:36;;;;;;;14.20;2.50;;;;;;;15.35;67.32;96093.81;435365;1251;113058;-41
2024/03/28 10:03:48;;;;;;;7.10;1.90;;;;;;;14.88;66.24;96116.06;435405;1254;107098;-40
2024/03/28 10:13:55;;;;;;;4.20;1.60;;;;;;;15.24;66.61;96132.96;435360;1254;100581;-43
2024/03/28 10:24:03;;;;;;;3.60;1.10;;;;;;;15.99;63.96;96145.17;435345;1253;108246;-41
2024/03/28 10:34:15;;;;;;;7.40;1.20;;;;;;;16.27;60.78;96159.30;435314;1257;100605;-40
2024/03/28 10:44:21;;;;;;;3.60;0.80;;;;;;;15.92;60.27;96164.88;435271;1263;112824;-41
2024/03/28 11:04:52;;;;;;;2.50;0.70;;;;;;;15.40;58.72;96208.54;435318;1251;99308;-41
2024/03/28 11:15:04;;;;;;;3.30;0.80;;;;;;;14.93;59.07;96239.16;435481;1263;108458;-41
2024/03/28 11:25:31;;;;;;;1.60;0.60;;;;;;;14.88;60.24;96247.66;435370;1261;99343;-41
2024/03/28 11:35:39;;;;;;;1.90;1.20;;;;;;;14.56;60.48;96269.73;435443;1253;113126;-41
2024/03/28 11:45:57;;;;;;;1.30;0.80;;;;;;;14.05;61.41;96282.27;435341;1254;107331;-39
2024/03/28 11:56:05;;;;;;;3.20;1.10;;;;;;;14.02;61.80;96288.24;435324;1264;100562;-40
2024/03/28 12:06:12;;;;;;;2.70;1.00;;;;;;;14.15;61.85;96285.87;435185;1251;108536;-40
2024/03/28 12:16:19;;;;;;;3.10;0.50;;;;;;;14.22;61.26;96294.66;436144;1253;100607;-40
2024/03/28 12:26:26;;;;;;;4.50;1.10;;;;;;;14.58;60.13;96302.28;436355;1253;113558;-41
2024/03/28 12:36:39;;;;;;;2.30;1.30;;;;;;;14.54;59.41;96332.34;436154;1254;109354;-40
2024/03/28 12:46:45;;;;;;;8.00;1.60;;;;;;;14.21;59.10;96332.69;436052;1253;100593;-41
2024/03/28 12:56:52;;;;;;;3.70;1.40;;;;;;;14.64;58.95;96332.16;435356;1251;108694;-40
2024/03/28 13:17:02;;;;;;;2.90;1.00;;;;;;;14.70;57.80;96363.86;435429;1256;112825;-39
2024/03/28 13:27:09;;;;;;;7.60;1.00;;;;;;;14.79;57.24;96377.16;435375;1254;108229;-39
2024/03/28 13:37:35;;;;;;;2.20;0.50;;;;;;;14.89;55.94;96388.41;435303;1254;99917;-41
2024/03/28 13:47:41;;;;;;;0.70;0.50;;;;;;;14.83;55.40;96402.06;435321;1254;108339;-41
2024/03/28 13:57:48;;;;;;;1.40;0.60;;;;;;;14.79;55.08;96425.90;435384;1254;100572;-40
2024/03/28 14:07:56;;;;;;;0.50;0.40;;;;;;;14.89;54.32;96442.95;435402;1257;113462;-43
2024/03/28 14:18:03;;;;;;;3.20;0.80;;;;;;;15.02;54.17;96442.09;435294;1251;107487;-40
2024/03/28 14:28:10;;;;;;;2.00;0.50;;;;;;;14.96;52.64;96444.03;435413;1251;99404;-38
2024/03/28 14:38:16;;;;;;;2.80;0.50;;;;;;;14.98;52.18;96435.67;435244;1253;107283;-40
2024/03/28 14:48:23;;;;;;;0.90;0.70;;;;;;;14.91;51.53;96442.43;435279;1250;100576;-39
2024/03/28 14:58:30;;;;;;;2.80;0.80;;;;;;;14.89;49.56;96456.26;435397;1253;113110;-41
2024/03/28 15:08:46;;;;;;;;;;;;;;;14.86;48.84;96466.04;435324;1254;108396;-40
2024/03/28 15:18:53;;;;;;;3.00;0.60;;;;;;;14.78;48.96;96475.48;435290;1254;99349;-39
2024/03/28 15:29:00;;;;;;;1.30;0.60;;;;;;;14.66;47.09;96495.80;435125;1253;108480;-40
2024/03/28 15:39:07;;;;;;;2.00;0.80;;;;;;;14.46;47.00;96507.63;435347;1250;99376;-41
2024/03/28 15:49:14;;;;;;;5.30;2.50;;;;;;;14.41;48.17;96515.56;435477;1254;112340;-40
2024/03/28 15:59:21;;;;;;;2.40;1.60;;;;;;;14.29;48.40;96518.33;435296;1250;108544;-41
2024/03/28 16:09:28;;;;;;;1.00;0.70;;;;;;;14.12;48.57;96530.66;435321;1250;99359;-41
2024/03/28 16:19:36;;;;;;;2.30;0.90;;;;;;;13.98;47.69;96541.58;435530;1254;108577;-40
2024/03/28 16:29:43;;;;;;;2.40;1.20;;;;;;;13.78;47.95;96558.30;435370;1253;100591;-40
2024/03/28 16:39:50;;;;;;;1.80;1.20;;;;;;;13.59;48.39;96571.05;435335;1254;112316;-39
2024/03/28 16:49:56;;;;;;;12.60;1.60;;;;;;;13.40;48.74;96577.85;435256;1254;107649;-40
2024/03/28 17:00:17;;;;;;;5.10;2.60;;;;;;;13.18;49.14;96588.69;435336;1250;99403;-40
2024/03/28 17:10:24;;;;;;;11.10;4.40;;;;;;;12.96;49.43;96596.42;435299;1254;107937;-41
2024/03/28 17:20:31;;;;;;;5.90;3.20;;;;;;;12.74;49.96;96605.05;435357;1253;100524;-40
2024/03/28 17:30:37;;;;;;;5.80;3.40;;;;;;;12.64;50.47;96606.56;435324;1253;113065;-40
2024/03/28 17:40:49;;;;;;;9.00;5.10;;;;;;;12.56;51.07;96611.02;435081;1254;434736;-40
2024/03/28 17:51:09;;;;;;;8.80;4.50;;;;;;;12.40;51.37;96617.77;435369;1249;100590;-41
2024/03/28 18:01:16;;;;;;;9.10;5.50;;;;;;;12.19;51.43;96622.59;435198;1254;107777;-40
2024/03/28 18:11:21;;;;;;;15.80;7.90;;;;;;;11.89;51.92;96623.13;435316;1254;100591;-40
2024/03/28 18:21:28;;;;;;;23.50;10.40;;;;;;;11.56;52.29;96624.88;435262;1254;113124;-40
2024/03/28 18:31:35;;;;;;;25.60;12.60;;;;;;;11.32;52.78;96632.42;435452;1254;107966;-40
2024/03/28 18:41:42;;;;;;;39.20;17.00;;;;;;;11.18;53.28;96640.64;435251;1254;99347;-41
2024/03/28 18:51:48;;;;;;;33.50;16.90;;;;;;;11.11;53.76;96645.89;435509;1254;108405;-39
2024/03/28 19:01:55;;;;;;;23.90;10.90;;;;;;;11.11;54.38;96652.30;435566;1249;100603;-40
2024/03/28 19:12:02;;;;;;;33.20;14.20;;;;;;;11.15;54.77;96658.76;435353;1253;112948;-40
2024/03/28 19:22:09;;;;;;;35.60;14.90;;;;;;;11.12;55.07;96655.08;435361;1254;108304;-39
2024/03/28 19:32:15;;;;;;;27.10;11.80;;;;;;;11.09;55.48;96659.77;435471;1250;99296;-40
2024/03/28 19:42:27;;;;;;;29.00;14.30;;;;;;;11.04;55.85;96679.38;435326;1254;108228;-40
2024/03/28 19:52:34;;;;;;;34.30;16.10;;;;;;;11.03;56.36;96718.05;435319;1254;99360;-39
2024/03/28 20:02:42;;;;;;;20.40;9.80;;;;;;;11.10;56.82;96729.54;435491;1249;111308;-39
2024/03/28 20:12:49;;;;;;;18.20;8.00;;;;;;;11.25;57.18;96737.96;435267;1254;106742;-41
2024/03/28 20:22:56;;;;;;;12.80;6.60;;;;;;;11.27;57.37;96757.89;435251;1249;99851;-39
2024/03/28 20:33:03;;;;;;;8.80;4.30;;;;;;;11.15;57.61;96774.83;435332;1254;108307;-39
2024/03/28 20:43:10;;;;;;;5.40;2.20;;;;;;;10.90;58.23;96786.83;435357;1254;100618;-41
2024/03/28 20:53:18;;;;;;;4.80;3.80;;;;;;;10.54;59.10;96790.78;435306;1250;114367;-41
2024/03/28 21:03:27;;;;;;;10.00;5.00;;;;;;;10.38;59.40;96791.13;435514;1249;107839;-41
2024/03/28 21:13:33;;;;;;;6.70;4.40;;;;;;;10.23;59.78;96809.00;435238;1250;100572;-40
2024/03/28 21:23:40;;;;;;;9.00;3.40;;;;;;;10.12;60.41;96833.73;435208;1254;109393;-40
2024/03/28 21:43:54;;;;;;;4.40;2.40;;;;;;;9.68;62.43;96884.70;435360;1254;114290;-41
2024/03/28 21:54:02;;;;;;;6.30;3.10;;;;;;;9.23;63.42;96905.23;435461;1255;106528;-39
2024/03/28 22:04:09;;;;;;;5.60;2.30;;;;;;;8.76;64.84;96918.86;435390;1253;99854;-40
2024/03/28 22:14:16;;;;;;;5.80;3.80;;;;;;;8.44;65.77;96928.39;435479;1250;107961;-40
2024/03/28 22:24:23;;;;;;;4.80;3.00;;;;;;;8.32;66.63;96964.61;435167;1251;99340;-40
2024/03/28 22:34:29;;;;;;;7.20;3.30;;;;;;;8.20;68.13;97006.97;435282;1251;113095;-40
2024/03/28 22:44:36;;;;;;;5.70;1.60;;;;;;;8.19;68.91;97039.02;435227;1254;109451;-41
2024/03/28 22:54:43;;;;;;;5.60;2.40;;;;;;;8.08;69.84;97050.74;435425;1256;99644;-42
2024/03/28 23:14:58;;;;;;;5.00;2.30;;;;;;;7.63;71.65;97095.30;435387;1254;100577;-41
2024/03/28 23:25:04;;;;;;;5.30;2.00;;;;;;;7.63;72.07;97114.66;435312;1251;112733;-39
2024/03/28 23:35:11;;;;;;;4.40;1.80;;;;;;;7.62;72.09;97117.48;435220;1253;107421;-40
2024/03/28 23:45:17;;;;;;;2.80;1.60;;;;;;;7.60;72.36;97120.94;435447;1254;99353;-41
2024/03/28 23:55:23;;;;;;;5.50;1.90;;;;;;;7.49;72.36;97125.08;435343;1256;108203;-40
